createdAt,value
2017-01-26T00:00:08.266Z,0
2017-01-26T00:01:08.222Z,0
2017-01-26T00:02:07.859Z,0
2017-01-26T00:03:07.745Z,0
2017-01-26T00:04:07.321Z,0
2017-01-26T00:05:08.166Z,0
2017-01-26T00:06:08.159Z,0
2017-01-26T00:07:07.638Z,0
2017-01-26T00:08:07.668Z,0
2017-01-26T00:09:07.180Z,0
2017-01-26T00:10:07.954Z,0
2017-01-26T00:11:07.587Z,0
2017-01-26T00:12:07.090Z,0
2017-01-26T00:13:07.136Z,0
2017-01-26T00:14:07.456Z,0
2017-01-26T00:15:07.054Z,0
2017-01-26T00:16:06.994Z,0
2017-01-26T00:17:07.377Z,0
2017-01-26T00:18:07.334Z,0
2017-01-26T00:19:07.772Z,0
2017-01-26T00:20:07.679Z,0
2017-01-26T00:21:06.892Z,0
2017-01-26T00:22:07.639Z,0
2017-01-26T00:23:07.199Z,0
2017-01-26T00:24:06.760Z,0
2017-01-26T00:25:07.752Z,0
2017-01-26T00:26:07.501Z,0
2017-01-26T00:27:07.167Z,0
2017-01-26T00:28:06.664Z,0
2017-01-26T00:29:07.017Z,0
2017-01-26T00:30:06.996Z,0
2017-01-26T00:31:06.665Z,0
2017-01-26T00:32:06.144Z,0
2017-01-26T00:33:06.903Z,0
2017-01-26T00:34:06.870Z,0
2017-01-26T00:35:06.853Z,0
2017-01-26T00:36:06.816Z,0
2017-01-26T00:37:06.794Z,0
2017-01-26T00:38:07.246Z,0
2017-01-26T00:39:06.338Z,0
2017-01-26T00:40:06.297Z,0
2017-01-26T00:41:06.742Z,0
2017-01-26T00:42:06.251Z,0
2017-01-26T00:43:06.218Z,0
2017-01-26T00:44:07.009Z,0
2017-01-26T00:45:06.575Z,0
2017-01-26T00:46:06.679Z,0
2017-01-26T00:47:06.573Z,0
2017-01-26T00:48:06.928Z,0
2017-01-26T00:49:05.650Z,0
2017-01-26T00:50:06.022Z,0
2017-01-26T00:51:06.395Z,0
2017-01-26T00:52:06.416Z,0
2017-01-26T00:53:05.535Z,0
2017-01-26T00:54:05.900Z,0
2017-01-26T00:55:06.702Z,0
2017-01-26T00:56:06.673Z,0
2017-01-26T00:57:06.743Z,0
2017-01-26T00:58:06.240Z,0
2017-01-26T00:59:05.775Z,0
2017-01-26T01:00:06.560Z,0
2017-01-26T01:01:06.131Z,0
2017-01-26T01:02:06.106Z,0
2017-01-26T01:03:06.122Z,0
2017-01-26T01:04:05.701Z,0
2017-01-26T01:05:06.016Z,0
2017-01-26T01:06:05.979Z,0
2017-01-26T01:07:05.538Z,0
2017-01-26T01:08:05.937Z,0
2017-01-26T01:09:06.296Z,0
2017-01-26T01:10:06.299Z,0
2017-01-26T01:11:05.835Z,0
2017-01-26T01:12:05.815Z,0
2017-01-26T01:13:05.854Z,0
2017-01-26T01:14:05.347Z,0
2017-01-26T01:15:05.325Z,0
2017-01-26T01:16:05.283Z,0
2017-01-26T01:17:06.080Z,0
2017-01-26T01:18:05.655Z,0
2017-01-26T01:19:05.201Z,0
2017-01-26T01:20:06.015Z,0
2017-01-26T01:21:05.957Z,0
2017-01-26T01:22:05.520Z,0
2017-01-26T01:23:05.508Z,0
2017-01-26T01:24:05.065Z,0
2017-01-26T01:25:05.445Z,0
2017-01-26T01:26:05.067Z,0
2017-01-26T01:27:04.575Z,0
2017-01-26T01:28:05.357Z,0
2017-01-26T01:29:05.725Z,0
2017-01-26T01:30:04.921Z,0
2017-01-26T01:31:05.263Z,0
2017-01-26T01:32:04.831Z,0
2017-01-26T01:33:04.809Z,0
2017-01-26T01:34:04.776Z,0
2017-01-26T01:35:05.152Z,0
2017-01-26T01:36:05.151Z,0
2017-01-26T01:37:05.088Z,0
2017-01-26T01:38:05.471Z,0
2017-01-26T01:39:05.466Z,0
2017-01-26T01:40:04.675Z,0
2017-01-26T01:41:05.027Z,0
2017-01-26T01:42:04.206Z,0
2017-01-26T01:43:04.562Z,0
2017-01-26T01:44:04.108Z,0
2017-01-26T01:45:05.278Z,0
2017-01-26T01:46:04.837Z,0
2017-01-26T01:47:05.213Z,0
2017-01-26T01:48:04.372Z,0
2017-01-26T01:49:04.745Z,0
2017-01-26T01:50:05.120Z,0
2017-01-26T01:51:05.102Z,0
2017-01-26T01:52:05.069Z,0
2017-01-26T01:53:05.043Z,0
2017-01-26T01:54:04.197Z,0
2017-01-26T01:55:04.974Z,0
2017-01-26T01:56:04.141Z,0
2017-01-26T01:57:04.525Z,0
2017-01-26T01:58:04.486Z,0
2017-01-26T01:59:04.459Z,0
2017-01-26T02:00:04.447Z,0
2017-01-26T02:01:04.486Z,0
2017-01-26T02:02:04.782Z,0
2017-01-26T02:03:03.987Z,0
2017-01-26T02:04:04.347Z,0
2017-01-26T02:05:04.294Z,0
2017-01-26T02:06:03.461Z,0
2017-01-26T02:07:04.649Z,0
2017-01-26T02:08:04.210Z,0
2017-01-26T02:09:04.178Z,0
2017-01-26T02:10:03.752Z,0
2017-01-26T02:11:03.723Z,0
2017-01-26T02:12:04.084Z,0
2017-01-26T02:13:04.093Z,0
2017-01-26T02:14:04.033Z,0
2017-01-26T02:15:03.603Z,0
2017-01-26T02:16:03.561Z,0
2017-01-26T02:17:03.934Z,0
2017-01-26T02:18:03.929Z,0
2017-01-26T02:19:03.081Z,0
2017-01-26T02:20:03.868Z,0
2017-01-26T02:21:03.429Z,0
2017-01-26T02:22:04.188Z,0
2017-01-26T02:23:02.956Z,0
2017-01-26T02:24:03.737Z,0
2017-01-26T02:25:03.726Z,0
2017-01-26T02:26:03.669Z,0
2017-01-26T02:27:04.058Z,0
2017-01-26T02:28:03.645Z,0
2017-01-26T02:29:02.794Z,0
2017-01-26T02:30:03.564Z,0
2017-01-26T02:31:03.951Z,0
2017-01-26T02:32:03.917Z,0
2017-01-26T02:33:03.493Z,0
2017-01-26T02:34:03.857Z,0
2017-01-26T02:35:03.852Z,0
2017-01-26T02:36:03.790Z,0
2017-01-26T02:37:03.376Z,0
2017-01-26T02:38:03.344Z,0
2017-01-26T02:39:03.309Z,0
2017-01-26T02:40:03.277Z,0
2017-01-26T02:41:02.905Z,0
2017-01-26T02:42:03.226Z,0
2017-01-26T02:43:02.822Z,0
2017-01-26T02:44:02.755Z,0
2017-01-26T02:45:03.146Z,0
2017-01-26T02:46:02.755Z,0
2017-01-26T02:47:03.085Z,0
2017-01-26T02:48:03.479Z,0
2017-01-26T02:49:03.026Z,0
2017-01-26T02:50:02.632Z,0
2017-01-26T02:51:02.552Z,0
2017-01-26T02:52:02.227Z,0
2017-01-26T02:53:02.896Z,0
2017-01-26T02:54:03.311Z,0
2017-01-26T02:55:02.850Z,0
2017-01-26T02:56:02.861Z,0
2017-01-26T02:57:02.370Z,0
2017-01-26T02:58:03.164Z,0
2017-01-26T02:59:02.775Z,0
2017-01-26T03:00:03.107Z,0
2017-01-26T03:01:02.686Z,0
2017-01-26T03:02:02.654Z,0
2017-01-26T03:03:02.625Z,0
2017-01-26T03:04:02.180Z,0
2017-01-26T03:05:02.155Z,0
2017-01-26T03:06:02.534Z,0
2017-01-26T03:07:01.713Z,0
2017-01-26T03:08:02.483Z,0
2017-01-26T03:09:02.032Z,0
2017-01-26T03:10:02.415Z,0
2017-01-26T03:11:02.393Z,0
2017-01-26T03:12:02.341Z,0
2017-01-26T03:13:02.329Z,0
2017-01-26T03:14:01.881Z,0
2017-01-26T03:15:02.381Z,0
2017-01-26T03:16:01.841Z,0
2017-01-26T03:17:02.287Z,0
2017-01-26T03:18:02.582Z,0
2017-01-26T03:19:01.737Z,0
2017-01-26T03:20:02.124Z,0
2017-01-26T03:21:01.685Z,0
2017-01-26T03:22:02.464Z,0
2017-01-26T03:23:01.654Z,0
2017-01-26T03:24:02.414Z,0
2017-01-26T03:25:02.441Z,0
2017-01-26T03:26:01.543Z,0
2017-01-26T03:27:01.508Z,0
2017-01-26T03:28:01.469Z,0
2017-01-26T03:29:01.849Z,0
2017-01-26T03:30:02.330Z,0
2017-01-26T03:31:01.793Z,0
2017-01-26T03:32:02.174Z,0
2017-01-26T03:33:01.736Z,0
2017-01-26T03:34:01.297Z,0
2017-01-26T03:35:01.679Z,0
2017-01-26T03:36:01.656Z,0
2017-01-26T03:37:01.215Z,0
2017-01-26T03:38:01.585Z,0
2017-01-26T03:39:01.565Z,0
2017-01-26T03:40:01.920Z,0
2017-01-26T03:41:01.964Z,0
2017-01-26T03:42:01.493Z,0
2017-01-26T03:43:01.125Z,0
2017-01-26T03:44:01.823Z,0
2017-01-26T03:45:01.407Z,0
2017-01-26T03:46:01.361Z,0
2017-01-26T03:47:01.421Z,0
2017-01-26T03:48:01.731Z,0
2017-01-26T03:49:01.866Z,0
2017-01-26T03:50:00.449Z,0
2017-01-26T03:51:01.216Z,0
2017-01-26T03:52:01.198Z,0
2017-01-26T03:53:00.354Z,0
2017-01-26T03:54:00.372Z,0
2017-01-26T03:55:00.694Z,0
2017-01-26T03:56:01.065Z,0
2017-01-26T03:57:00.645Z,0
2017-01-26T03:58:00.611Z,0
2017-01-26T03:59:00.983Z,0
2017-01-26T04:00:01.410Z,0
2017-01-26T04:01:00.933Z,0
2017-01-26T04:02:00.941Z,0
2017-01-26T04:03:00.083Z,0
2017-01-26T04:04:00.890Z,0
2017-01-26T04:05:01.214Z,0
2017-01-26T04:06:01.220Z,0
2017-01-26T04:07:00.758Z,0
2017-01-26T04:08:00.825Z,0
2017-01-26T04:09:01.105Z,0
2017-01-26T04:10:00.269Z,0
2017-01-26T04:11:00.656Z,0
2017-01-26T04:12:00.262Z,0
2017-01-26T04:13:00.976Z,0
2017-01-26T04:14:00.148Z,0
2017-01-26T04:15:00.525Z,0
2017-01-26T04:16:00.904Z,0
2017-01-26T04:17:00.071Z,0
2017-01-26T04:18:00.862Z,0
2017-01-26T04:19:00.413Z,0
2017-01-26T04:20:00.793Z,0
2017-01-26T04:21:00.842Z,0
2017-01-26T04:21:59.904Z,0
2017-01-26T04:22:59.484Z,0
2017-01-26T04:24:00.659Z,0
2017-01-26T04:25:00.234Z,0
2017-01-26T04:26:00.610Z,0
2017-01-26T04:27:00.569Z,0
2017-01-26T04:28:00.541Z,0
2017-01-26T04:28:59.712Z,0
2017-01-26T04:30:00.113Z,0
2017-01-26T04:30:59.643Z,0
2017-01-26T04:32:00.434Z,0
2017-01-26T04:33:00.421Z,0
2017-01-26T04:33:59.172Z,0
2017-01-26T04:34:59.532Z,0
2017-01-26T04:35:59.507Z,0
2017-01-26T04:36:59.884Z,0
2017-01-26T04:37:59.853Z,0
2017-01-26T04:38:59.429Z,0
2017-01-26T04:39:59.389Z,0
2017-01-26T04:41:00.171Z,0
2017-01-26T04:41:59.372Z,0
2017-01-26T04:43:00.102Z,0
2017-01-26T04:44:00.093Z,0
2017-01-26T04:44:59.654Z,0
2017-01-26T04:46:00.039Z,0
2017-01-26T04:47:00.020Z,0
2017-01-26T04:47:58.807Z,0
2017-01-26T04:48:59.531Z,0
2017-01-26T04:49:59.913Z,0
2017-01-26T04:50:59.473Z,0
2017-01-26T04:51:59.143Z,0
2017-01-26T04:52:59.025Z,0
2017-01-26T04:53:59.369Z,0
2017-01-26T04:54:58.950Z,0
2017-01-26T04:55:59.728Z,0
2017-01-26T04:56:59.303Z,0
2017-01-26T04:57:59.262Z,0
2017-01-26T04:58:59.241Z,0
2017-01-26T04:59:58.871Z,0
2017-01-26T05:00:59.591Z,0
2017-01-26T05:01:59.147Z,0
2017-01-26T05:02:59.184Z,0
2017-01-26T05:03:59.123Z,0
2017-01-26T05:04:58.666Z,0
2017-01-26T05:05:59.028Z,0
2017-01-26T05:06:59.404Z,0
2017-01-26T05:07:58.572Z,0
2017-01-26T05:08:59.356Z,0
2017-01-26T05:09:58.516Z,0
2017-01-26T05:10:59.305Z,0
2017-01-26T05:11:59.262Z,0
2017-01-26T05:12:58.510Z,0
2017-01-26T05:13:58.387Z,0
2017-01-26T05:14:58.373Z,0
2017-01-26T05:15:58.753Z,0
2017-01-26T05:16:58.725Z,0
2017-01-26T05:17:58.695Z,0
2017-01-26T05:18:59.063Z,0
2017-01-26T05:19:58.224Z,0
2017-01-26T05:20:59.004Z,0
2017-01-26T05:21:58.990Z,0
2017-01-26T05:22:58.939Z,0
2017-01-26T05:23:58.180Z,0
2017-01-26T05:24:58.495Z,0
2017-01-26T05:25:58.079Z,0
2017-01-26T05:26:58.429Z,0
2017-01-26T05:27:58.804Z,0
2017-01-26T05:28:58.771Z,0
2017-01-26T05:29:58.349Z,0
2017-01-26T05:30:58.306Z,0
2017-01-26T05:31:58.276Z,0
2017-01-26T05:32:58.260Z,0
2017-01-26T05:33:58.639Z,0
2017-01-26T05:34:58.653Z,0
2017-01-26T05:35:58.572Z,0
2017-01-26T05:36:58.133Z,0
2017-01-26T05:37:58.113Z,0
2017-01-26T05:38:58.498Z,0
2017-01-26T05:39:58.454Z,0
2017-01-26T05:40:58.442Z,0
2017-01-26T05:41:58.001Z,0
2017-01-26T05:42:57.157Z,0
2017-01-26T05:43:57.928Z,0
2017-01-26T05:44:58.303Z,0
2017-01-26T05:45:57.881Z,0
2017-01-26T05:46:57.448Z,0
2017-01-26T05:47:58.266Z,0
2017-01-26T05:48:57.798Z,0
2017-01-26T05:49:58.186Z,0
2017-01-26T05:50:57.717Z,0
2017-01-26T05:51:57.698Z,0
2017-01-26T05:52:58.075Z,0
2017-01-26T05:53:58.089Z,0
2017-01-26T05:54:57.206Z,0
2017-01-26T05:55:57.602Z,0
2017-01-26T05:56:57.562Z,0
2017-01-26T05:57:57.976Z,0
2017-01-26T05:58:57.482Z,0
2017-01-26T05:59:57.478Z,0
2017-01-26T06:00:57.436Z,0
2017-01-26T06:01:57.400Z,0
2017-01-26T06:02:57.787Z,0
2017-01-26T06:03:56.949Z,0
2017-01-26T06:04:57.742Z,0
2017-01-26T06:05:56.878Z,0
2017-01-26T06:06:56.867Z,0
2017-01-26T06:07:57.637Z,0
2017-01-26T06:08:56.796Z,0
2017-01-26T06:09:57.606Z,0
2017-01-26T06:10:57.560Z,0
2017-01-26T06:11:56.703Z,0
2017-01-26T06:12:57.087Z,0
2017-01-26T06:13:56.699Z,0
2017-01-26T06:14:56.634Z,0
2017-01-26T06:15:56.594Z,0
2017-01-26T06:16:57.364Z,0
2017-01-26T06:17:57.343Z,0
2017-01-26T06:18:56.912Z,0
2017-01-26T06:19:56.483Z,0
2017-01-26T06:20:57.407Z,0
2017-01-26T06:21:56.043Z,0
2017-01-26T06:22:56.388Z,0
2017-01-26T06:23:56.362Z,0
2017-01-26T06:24:55.937Z,0
2017-01-26T06:25:56.707Z,0
2017-01-26T06:26:56.667Z,0
2017-01-26T06:27:56.654Z,0
2017-01-26T06:28:56.716Z,0
2017-01-26T06:29:56.995Z,0
2017-01-26T06:30:56.161Z,0
2017-01-26T06:31:56.516Z,0
2017-01-26T06:32:56.537Z,0
2017-01-26T06:33:56.935Z,0
2017-01-26T06:34:56.943Z,0
2017-01-26T06:35:56.814Z,0
2017-01-26T06:36:56.390Z,4
2017-01-26T06:37:56.372Z,4
2017-01-26T06:38:55.923Z,0
2017-01-26T06:39:55.480Z,0
2017-01-26T06:40:56.269Z,4
2017-01-26T06:41:55.840Z,0
2017-01-26T06:42:56.210Z,4
2017-01-26T06:43:55.776Z,4
2017-01-26T06:44:56.581Z,4
2017-01-26T06:45:55.718Z,4
2017-01-26T06:46:56.488Z,4
2017-01-26T06:47:56.059Z,4
2017-01-26T06:48:55.636Z,8
2017-01-26T06:49:56.012Z,8
2017-01-26T06:50:55.583Z,12
2017-01-26T06:51:56.337Z,12
2017-01-26T06:52:56.324Z,12
2017-01-26T06:53:56.294Z,16
2017-01-26T06:54:55.494Z,20
2017-01-26T06:55:55.422Z,20
2017-01-26T06:56:55.844Z,24
2017-01-26T06:57:55.759Z,32
2017-01-26T06:58:55.757Z,36
2017-01-26T06:59:56.106Z,40
2017-01-26T07:00:55.681Z,48
2017-01-26T07:01:55.238Z,56
2017-01-26T07:02:56.079Z,64
2017-01-26T07:03:55.999Z,68
2017-01-26T07:04:55.576Z,80
2017-01-26T07:05:55.175Z,88
2017-01-26T07:06:55.584Z,96
2017-01-26T07:07:55.487Z,112
2017-01-26T07:08:55.440Z,120
2017-01-26T07:09:55.859Z,136
2017-01-26T07:10:55.530Z,148
2017-01-26T07:11:55.414Z,164
2017-01-26T07:12:55.762Z,180
2017-01-26T07:13:54.903Z,196
2017-01-26T07:14:55.274Z,216
2017-01-26T07:15:55.302Z,232
2017-01-26T07:16:54.915Z,252
2017-01-26T07:17:55.244Z,276
2017-01-26T07:18:54.458Z,296
2017-01-26T07:19:55.241Z,320
2017-01-26T07:20:55.102Z,340
2017-01-26T07:21:55.083Z,364
2017-01-26T07:22:55.508Z,392
2017-01-26T07:23:55.028Z,420
2017-01-26T07:24:54.983Z,452
2017-01-26T07:25:55.057Z,480
2017-01-26T07:26:54.931Z,512
2017-01-26T07:27:54.980Z,544
2017-01-26T07:28:54.862Z,584
2017-01-26T07:29:54.488Z,620
2017-01-26T07:30:55.206Z,660
2017-01-26T07:31:55.183Z,704
2017-01-26T07:32:55.162Z,744
2017-01-26T07:33:53.903Z,788
2017-01-26T07:34:54.702Z,832
2017-01-26T07:35:55.086Z,880
2017-01-26T07:36:54.241Z,928
2017-01-26T07:37:55.021Z,976
2017-01-26T07:38:54.583Z,1028
2017-01-26T07:39:54.649Z,1080
2017-01-26T07:40:54.131Z,1132
2017-01-26T07:41:54.109Z,1184
2017-01-26T07:42:54.506Z,1244
2017-01-26T07:43:54.731Z,1304
2017-01-26T07:44:53.992Z,1360
2017-01-26T07:45:54.066Z,1416
2017-01-26T07:46:54.326Z,1484
2017-01-26T07:47:53.954Z,1544
2017-01-26T07:48:54.275Z,1604
2017-01-26T07:49:54.243Z,1672
2017-01-26T07:50:54.223Z,1748
2017-01-26T07:51:53.818Z,1816
2017-01-26T07:52:54.595Z,1888
2017-01-26T07:53:54.132Z,1952
2017-01-26T07:54:54.508Z,2016
2017-01-26T07:55:54.081Z,2076
2017-01-26T07:56:54.449Z,2140
2017-01-26T07:57:54.020Z,2212
2017-01-26T07:58:53.571Z,2284
2017-01-26T07:59:53.960Z,2356
2017-01-26T08:00:53.919Z,2424
2017-01-26T08:01:53.896Z,2488
2017-01-26T08:02:53.866Z,2552
2017-01-26T08:03:53.844Z,2620
2017-01-26T08:04:53.816Z,2684
2017-01-26T08:05:53.776Z,2752
2017-01-26T08:06:54.161Z,2828
2017-01-26T08:07:53.325Z,2916
2017-01-26T08:08:53.705Z,3616
2017-01-26T08:09:54.088Z,5528
2017-01-26T08:10:52.833Z,9536
2017-01-26T08:11:53.722Z,11424
2017-01-26T08:12:53.596Z,10300
2017-01-26T08:13:53.556Z,7232
2017-01-26T08:14:53.112Z,6236
2017-01-26T08:15:53.504Z,6568
2017-01-26T08:16:53.060Z,7848
2017-01-26T08:17:53.839Z,7520
2017-01-26T08:18:58.624Z,9648
2017-01-26T08:19:53.386Z,15360
2017-01-26T08:20:53.739Z,11968
2017-01-26T08:21:53.747Z,7676
2017-01-26T08:22:53.286Z,8204
2017-01-26T08:23:52.473Z,6888
2017-01-26T08:24:52.846Z,6728
2017-01-26T08:25:53.227Z,7416
2017-01-26T08:26:53.595Z,6856
2017-01-26T08:27:53.164Z,7712
2017-01-26T08:28:53.144Z,8124
2017-01-26T08:29:53.523Z,7932
2017-01-26T08:30:53.502Z,6560
2017-01-26T08:31:53.492Z,7900
2017-01-26T08:32:53.035Z,10348
2017-01-26T08:33:53.001Z,10140
2017-01-26T08:34:52.582Z,8560
2017-01-26T08:35:52.950Z,10908
2017-01-26T08:36:52.927Z,10276
2017-01-26T08:37:52.908Z,6336
2017-01-26T08:38:53.278Z,7628
2017-01-26T08:39:52.458Z,10708
2017-01-26T08:40:52.812Z,15040
2017-01-26T08:41:52.802Z,17536
2017-01-26T08:42:52.768Z,18944
2017-01-26T08:43:53.153Z,25632
2017-01-26T08:44:53.143Z,28928
2017-01-26T08:45:52.289Z,25984
2017-01-26T08:46:52.659Z,23424
2017-01-26T08:47:52.234Z,19136
2017-01-26T08:48:52.273Z,20544
2017-01-26T08:49:52.590Z,24672
2017-01-26T08:50:52.966Z,28032
2017-01-26T08:51:52.131Z,28160
2017-01-26T08:52:51.701Z,26368
2017-01-26T08:53:51.681Z,25728
2017-01-26T08:54:52.873Z,32288
2017-01-26T08:55:52.445Z,36256
2017-01-26T08:56:52.429Z,34784
2017-01-26T08:57:51.608Z,32672
2017-01-26T08:58:52.807Z,32544
2017-01-26T08:59:52.372Z,32928
2017-01-26T09:00:52.347Z,36832
2017-01-26T09:01:52.721Z,35488
2017-01-26T09:02:52.297Z,30656
2017-01-26T09:03:52.265Z,30944
2017-01-26T09:04:52.663Z,31936
2017-01-26T09:05:52.238Z,35776
2017-01-26T09:06:52.200Z,40064
2017-01-26T09:07:51.793Z,43360
2017-01-26T09:08:52.184Z,44992
2017-01-26T09:09:52.149Z,47744
2017-01-26T09:10:52.146Z,46368
2017-01-26T09:11:52.518Z,45280
2017-01-26T09:12:51.747Z,46048
2017-01-26T09:13:52.087Z,45152
2017-01-26T09:14:52.478Z,46752
2017-01-26T09:15:52.433Z,48480
2017-01-26T09:16:51.618Z,47360
2017-01-26T09:17:52.006Z,44800
2017-01-26T09:18:52.394Z,47456
2017-01-26T09:19:51.562Z,48512
2017-01-26T09:20:51.957Z,42528
2017-01-26T09:21:51.939Z,42240
2017-01-26T09:22:51.914Z,45600
2017-01-26T09:23:51.891Z,42080
2017-01-26T09:24:52.294Z,40832
2017-01-26T09:25:52.023Z,42112
2017-01-26T09:26:52.080Z,41888
2017-01-26T09:27:51.427Z,40928
2017-01-26T09:28:52.222Z,38720
2017-01-26T09:29:51.012Z,38912
2017-01-26T09:30:51.461Z,38592
2017-01-26T09:31:50.972Z,37280
2017-01-26T09:32:51.368Z,38208
2017-01-26T09:33:51.738Z,38080
2017-01-26T09:34:51.405Z,38176
2017-01-26T09:35:51.299Z,38528
2017-01-26T09:36:52.088Z,39968
2017-01-26T09:37:52.217Z,39744
2017-01-26T09:38:51.731Z,39840
2017-01-26T09:39:52.125Z,40992
2017-01-26T09:40:52.013Z,38464
2017-01-26T09:41:51.612Z,38112
2017-01-26T09:42:51.364Z,38368
2017-01-26T09:43:51.569Z,38336
2017-01-26T09:44:51.590Z,39840
2017-01-26T09:45:51.963Z,40544
2017-01-26T09:46:51.549Z,39904
2017-01-26T09:47:51.089Z,38208
2017-01-26T09:48:51.171Z,37888
2017-01-26T09:49:51.230Z,37472
2017-01-26T09:50:51.851Z,38496
2017-01-26T09:51:51.864Z,38976
2017-01-26T09:52:51.865Z,36992
2017-01-26T09:53:51.410Z,36000
2017-01-26T09:54:51.388Z,38400
2017-01-26T09:55:50.989Z,38848
2017-01-26T09:56:51.857Z,38080
2017-01-26T09:57:51.365Z,37408
2017-01-26T09:58:51.885Z,36096
2017-01-26T09:59:51.324Z,35488
2017-01-26T10:00:51.745Z,34848
2017-01-26T10:01:51.684Z,34688
2017-01-26T10:02:51.731Z,33440
2017-01-26T10:03:51.331Z,32768
2017-01-26T10:04:51.273Z,32320
2017-01-26T10:05:51.211Z,31744
2017-01-26T10:06:51.590Z,33984
2017-01-26T10:07:51.196Z,34784
2017-01-26T10:08:51.219Z,34656
2017-01-26T10:09:50.750Z,34560
2017-01-26T10:10:51.158Z,33728
2017-01-26T10:11:50.774Z,32608
2017-01-26T10:12:50.709Z,31200
2017-01-26T10:13:51.487Z,30592
2017-01-26T10:14:50.705Z,30848
2017-01-26T10:15:50.644Z,31776
2017-01-26T10:16:51.444Z,29760
2017-01-26T10:17:51.043Z,28320
2017-01-26T10:18:50.605Z,28864
2017-01-26T10:19:51.404Z,29440
2017-01-26T10:20:50.623Z,28864
2017-01-26T10:21:50.969Z,29344
2017-01-26T10:22:50.955Z,30112
2017-01-26T10:23:50.563Z,29152
2017-01-26T10:24:50.905Z,29504
2017-01-26T10:25:50.912Z,30080
2017-01-26T10:26:50.889Z,28832
2017-01-26T10:27:50.870Z,27520
2017-01-26T10:28:50.857Z,27872
2017-01-26T10:29:51.257Z,27840
2017-01-26T10:30:50.816Z,27040
2017-01-26T10:31:50.873Z,24640
2017-01-26T10:32:50.422Z,25472
2017-01-26T10:33:51.293Z,25920
2017-01-26T10:34:50.763Z,24480
2017-01-26T10:35:50.811Z,24256
2017-01-26T10:36:50.733Z,24672
2017-01-26T10:37:50.311Z,23200
2017-01-26T10:38:49.894Z,22208
2017-01-26T10:39:50.269Z,21728
2017-01-26T10:40:50.672Z,20224
2017-01-26T10:41:49.845Z,21248
2017-01-26T10:42:51.051Z,22560
2017-01-26T10:43:51.019Z,21120
2017-01-26T10:44:50.214Z,20384
2017-01-26T10:45:50.607Z,18368
2017-01-26T10:46:50.983Z,19744
2017-01-26T10:47:51.014Z,21888
2017-01-26T10:48:50.657Z,19040
2017-01-26T10:49:50.136Z,18112
2017-01-26T10:50:50.115Z,18592
2017-01-26T10:51:50.955Z,18496
2017-01-26T10:52:50.520Z,18912
2017-01-26T10:53:50.944Z,22240
2017-01-26T10:54:50.592Z,20224
2017-01-26T10:55:50.862Z,14028
2017-01-26T10:56:50.945Z,13256
2017-01-26T10:57:50.420Z,13448
2017-01-26T10:58:50.401Z,13824
2017-01-26T10:59:49.986Z,13884
2017-01-26T11:00:50.378Z,13912
2017-01-26T11:01:50.767Z,14496
2017-01-26T11:02:50.766Z,14688
2017-01-26T11:03:50.403Z,14112
2017-01-26T11:04:50.314Z,14240
2017-01-26T11:05:50.386Z,15296
2017-01-26T11:06:50.286Z,17600
2017-01-26T11:07:50.332Z,18464
2017-01-26T11:08:49.881Z,18880
2017-01-26T11:09:50.644Z,20064
2017-01-26T11:10:50.629Z,20224
2017-01-26T11:11:50.202Z,20960
2017-01-26T11:12:50.598Z,21184
2017-01-26T11:13:50.182Z,20928
2017-01-26T11:14:50.165Z,20928
2017-01-26T11:15:50.179Z,20384
2017-01-26T11:16:50.521Z,20608
2017-01-26T11:17:50.643Z,21376
2017-01-26T11:18:49.690Z,20576
2017-01-26T11:19:50.078Z,20544
2017-01-26T11:20:49.648Z,20064
2017-01-26T11:21:49.632Z,19584
2017-01-26T11:22:50.038Z,20256
2017-01-26T11:23:50.417Z,20576
2017-01-26T11:24:50.015Z,19936
2017-01-26T11:25:50.033Z,19584
2017-01-26T11:26:49.985Z,18272
2017-01-26T11:27:50.356Z,18752
2017-01-26T11:28:49.932Z,18560
2017-01-26T11:29:50.346Z,18400
2017-01-26T11:30:49.953Z,18560
2017-01-26T11:31:50.290Z,18304
2017-01-26T11:32:49.466Z,18112
2017-01-26T11:33:49.900Z,17792
2017-01-26T11:34:49.828Z,17600
2017-01-26T11:35:49.901Z,17120
2017-01-26T11:36:49.805Z,16768
2017-01-26T11:37:49.474Z,16448
2017-01-26T11:38:56.140Z,16224
2017-01-26T11:39:56.564Z,16448
2017-01-26T11:40:56.106Z,15840
2017-01-26T11:41:56.107Z,15776
2017-01-26T11:42:55.682Z,15744
2017-01-26T11:43:56.096Z,15232
2017-01-26T11:44:56.053Z,15104
2017-01-26T11:45:55.215Z,14688
2017-01-26T11:46:56.003Z,14656
2017-01-26T11:47:55.620Z,14368
2017-01-26T11:48:56.414Z,13984
2017-01-26T11:49:55.964Z,13656
2017-01-26T11:50:55.987Z,13588
2017-01-26T11:51:55.919Z,13468
2017-01-26T11:52:55.981Z,13340
2017-01-26T11:53:56.311Z,13084
2017-01-26T11:54:55.467Z,13196
2017-01-26T11:55:55.039Z,13224
2017-01-26T11:56:55.872Z,12936
2017-01-26T11:57:56.229Z,12728
2017-01-26T11:58:55.815Z,12476
2017-01-26T11:59:56.186Z,12372
2017-01-26T12:00:55.772Z,12416
2017-01-26T12:01:55.345Z,12668
2017-01-26T12:02:54.938Z,12856
2017-01-26T12:03:55.714Z,12804
2017-01-26T12:04:55.730Z,13056
2017-01-26T12:05:56.153Z,13852
2017-01-26T12:06:56.175Z,14944
2017-01-26T12:07:55.255Z,15808
2017-01-26T12:08:55.637Z,16096
2017-01-26T12:09:56.503Z,16480
2017-01-26T12:10:54.840Z,16896
2017-01-26T12:11:55.989Z,17088
2017-01-26T12:12:55.996Z,17600
2017-01-26T12:13:55.952Z,17344
2017-01-26T12:14:55.537Z,17504
2017-01-26T12:15:55.498Z,17376
2017-01-26T12:16:54.730Z,18112
2017-01-26T12:17:55.536Z,18048
2017-01-26T12:18:55.496Z,17664
2017-01-26T12:19:55.845Z,17856
2017-01-26T12:20:55.434Z,18240
2017-01-26T12:21:55.452Z,17632
2017-01-26T12:22:55.482Z,17472
2017-01-26T12:23:55.772Z,17888
2017-01-26T12:24:54.945Z,17568
2017-01-26T12:25:54.955Z,17248
2017-01-26T12:26:55.818Z,16992
2017-01-26T12:27:55.729Z,17024
2017-01-26T12:28:55.710Z,17312
2017-01-26T12:29:55.269Z,17696
2017-01-26T12:30:54.428Z,18208
2017-01-26T12:31:55.220Z,18624
2017-01-26T12:32:54.811Z,19808
2017-01-26T12:33:55.194Z,19456
2017-01-26T12:34:54.767Z,19072
2017-01-26T12:35:55.558Z,18752
2017-01-26T12:36:55.549Z,18528
2017-01-26T12:37:55.568Z,18880
2017-01-26T12:38:55.514Z,18656
2017-01-26T12:39:55.503Z,19392
2017-01-26T12:40:55.142Z,19680
2017-01-26T12:41:55.078Z,18944
2017-01-26T12:42:54.861Z,18720
2017-01-26T12:43:55.448Z,18656
2017-01-26T12:44:54.221Z,17664
2017-01-26T12:45:54.989Z,18016
2017-01-26T12:46:54.977Z,18880
2017-01-26T12:47:55.380Z,18240
2017-01-26T12:48:54.535Z,17888
2017-01-26T12:49:54.579Z,18176
2017-01-26T12:50:54.529Z,18400
2017-01-26T12:51:54.904Z,18368
2017-01-26T12:52:54.472Z,17440
2017-01-26T12:53:54.890Z,17280
2017-01-26T12:54:55.228Z,17536
2017-01-26T12:55:54.800Z,18272
2017-01-26T12:56:54.803Z,18528
2017-01-26T12:57:53.965Z,17920
2017-01-26T12:58:54.802Z,18208
2017-01-26T12:59:54.734Z,18272
2017-01-26T13:00:54.323Z,17728
2017-01-26T13:01:54.291Z,17536
2017-01-26T13:02:54.702Z,16800
2017-01-26T13:03:54.705Z,16896
2017-01-26T13:04:55.058Z,17088
2017-01-26T13:05:53.825Z,17152
2017-01-26T13:06:54.623Z,16768
2017-01-26T13:07:54.577Z,16768
2017-01-26T13:08:54.967Z,16896
2017-01-26T13:09:54.155Z,17536
2017-01-26T13:10:54.925Z,17152
2017-01-26T13:11:54.932Z,16576
2017-01-26T13:12:54.570Z,16736
2017-01-26T13:13:54.073Z,16128
2017-01-26T13:14:54.475Z,16448
2017-01-26T13:15:53.680Z,16800
2017-01-26T13:16:54.420Z,16096
2017-01-26T13:17:54.402Z,15968
2017-01-26T13:18:54.383Z,16064
2017-01-26T13:19:53.561Z,16160
2017-01-26T13:20:54.350Z,16448
2017-01-26T13:21:54.363Z,16256
2017-01-26T13:22:54.300Z,15776
2017-01-26T13:23:53.897Z,15648
2017-01-26T13:24:54.266Z,15648
2017-01-26T13:25:53.443Z,15712
2017-01-26T13:26:54.288Z,15872
2017-01-26T13:27:54.207Z,16160
2017-01-26T13:28:54.236Z,15712
2017-01-26T13:29:54.586Z,15328
2017-01-26T13:30:54.655Z,15264
2017-01-26T13:31:54.144Z,15264
2017-01-26T13:32:54.184Z,15072
2017-01-26T13:33:54.217Z,15168
2017-01-26T13:34:54.072Z,15264
2017-01-26T13:35:53.650Z,14944
2017-01-26T13:36:54.421Z,14784
2017-01-26T13:37:54.025Z,14752
2017-01-26T13:38:54.409Z,14816
2017-01-26T13:39:53.976Z,14944
2017-01-26T13:40:54.427Z,14688
2017-01-26T13:41:53.131Z,14688
2017-01-26T13:42:54.400Z,14720
2017-01-26T13:43:53.087Z,14560
2017-01-26T13:44:53.455Z,14880
2017-01-26T13:45:53.845Z,14300
2017-01-26T13:46:53.425Z,14496
2017-01-26T13:47:53.404Z,14976
2017-01-26T13:48:54.203Z,14264
2017-01-26T13:49:53.383Z,14004
2017-01-26T13:50:54.173Z,13812